createdAt,value
2022-08-08T00:00:52.080Z,99554.84
2022-08-08T00:05:00.615Z,99563.59
2022-08-08T00:10:11.334Z,99563.75
2022-08-08T00:15:24.381Z,99557.84
2022-08-08T00:20:49.420Z,99561.81
2022-08-08T00:25:57.950Z,99557.69
2022-08-08T00:32:28.204Z,99554.53
2022-08-08T00:36:35.245Z,99561.56
2022-08-08T00:42:08.851Z,99560.94
2022-08-08T00:48:29.333Z,99556.97
2022-08-08T00:54:18.335Z,99551.41
2022-08-08T00:59:59.472Z,99563.91
2022-08-08T01:05:41.830Z,99560.41
2022-08-08T01:11:03.565Z,99562.19
2022-08-08T01:16:46.400Z,99565.31
2022-08-08T01:22:32.461Z,99559.47
2022-08-08T01:28:14.978Z,99560.78
2022-08-08T01:34:06.039Z,99560.38
2022-08-08T01:39:52.450Z,99565.22
2022-08-08T01:45:09.976Z,99563.06
2022-08-08T01:50:36.449Z,99561.50
2022-08-08T01:56:28.502Z,99567.41
2022-08-08T02:01:59.600Z,99564.31
2022-08-08T02:07:01.790Z,99564.22
2022-08-08T02:12:15.014Z,99575.72
2022-08-08T02:17:47.954Z,99559.91
2022-08-08T02:23:07.756Z,99550.38
2022-08-08T02:28:34.862Z,99581.50
2022-08-08T02:34:08.153Z,99591.03
2022-08-08T02:39:57.421Z,99589.31
2022-08-08T02:45:51.647Z,99590.41
2022-08-08T02:51:55.700Z,99601.84
2022-08-08T02:57:44.400Z,99602.50
2022-08-08T03:05:00.228Z,99599.88
2022-08-08T03:09:37.460Z,99606.03
2022-08-08T03:15:58.343Z,99606.84
2022-08-08T03:20:26.653Z,99614.66
2022-08-08T03:25:35.779Z,99610.44
2022-08-08T03:30:39.647Z,99618.94
2022-08-08T03:35:43.302Z,99622.88
2022-08-08T03:40:55.970Z,99630.28
2022-08-08T03:46:05.195Z,99631.31
2022-08-08T03:51:10.963Z,99627.53
2022-08-08T03:56:32.277Z,99623.56
2022-08-08T04:02:31.713Z,99628.38
2022-08-08T07:05:52.799Z,99732.13
2022-08-08T07:11:08.753Z,99732.63
2022-08-08T07:16:34.179Z,99724.75
2022-08-08T07:22:00.439Z,99736.56
2022-08-08T07:27:09.313Z,99734.63
2022-08-08T07:32:16.995Z,99745.47
2022-08-08T07:37:24.721Z,99736.19
2022-08-08T07:42:33.068Z,99738.31
2022-08-08T07:47:39.777Z,99734.72
2022-08-08T07:53:00.804Z,99748.50
2022-08-08T07:58:15.543Z,99744.75
2022-08-08T08:03:31.202Z,99756.00
2022-08-08T08:08:55.388Z,99765.09
2022-08-08T08:14:07.950Z,99768.31
2022-08-08T08:19:14.894Z,99763.09
2022-08-08T08:24:19.750Z,99767.13
2022-08-08T08:29:30.956Z,99762.91
2022-08-08T08:34:34.490Z,99766.94
2022-08-08T08:40:01.679Z,99758.50
2022-08-08T08:45:21.078Z,99774.31
2022-08-08T08:50:32.718Z,99769.78
2022-08-08T08:55:41.940Z,99765.34
2022-08-08T09:01:08.903Z,99780.81
2022-08-08T09:06:28.372Z,99778.19
2022-08-08T09:11:47.536Z,99782.69
2022-08-08T09:17:11.516Z,99772.75
2022-08-08T09:22:25.985Z,99776.34
2022-08-08T09:27:55.456Z,99771.31
2022-08-08T09:33:12.458Z,99778.97
2022-08-08T09:38:33.468Z,99780.00
2022-08-08T09:44:06.903Z,99791.13
2022-08-08T09:49:42.441Z,99790.09
2022-08-08T09:54:45.577Z,99790.63
2022-08-08T10:00:28.698Z,99799.25
2022-08-08T10:05:23.010Z,99790.47
2022-08-08T10:10:32.588Z,99785.84
2022-08-08T10:15:39.658Z,99790.34
2022-08-08T10:20:58.321Z,99769.13
2022-08-08T10:26:12.281Z,99779.69
2022-08-08T10:31:49.144Z,99779.91
2022-08-08T10:36:55.052Z,99769.09
2022-08-08T10:42:15.473Z,99784.59
2022-08-08T10:47:23.116Z,99779.63
2022-08-08T10:52:30.895Z,99769.88
2022-08-08T10:57:50.259Z,99771.13
2022-08-08T11:02:57.131Z,99770.03
2022-08-08T11:08:30.543Z,99774.50
2022-08-08T11:13:29.597Z,99772.25
2022-08-08T11:18:36.115Z,99769.97
2022-08-08T11:23:43.267Z,99763.13
2022-08-08T11:28:50.101Z,99761.06
2022-08-08T11:34:02.930Z,99750.69
2022-08-08T11:39:11.042Z,99764.19
2022-08-08T11:44:17.187Z,99770.34
2022-08-08T11:49:33.902Z,99763.06
2022-08-08T11:54:44.672Z,99774.00
2022-08-08T12:00:00.257Z,99739.44
2022-08-08T12:05:12.286Z,99754.94
2022-08-08T12:10:18.703Z,99751.25
2022-08-08T12:15:40.073Z,99757.16
2022-08-08T12:20:48.326Z,99751.69
2022-08-08T12:25:52.695Z,99755.94
2022-08-08T12:31:07.185Z,99755.22
2022-08-08T12:36:16.408Z,99765.66
2022-08-08T12:41:35.019Z,99757.88
2022-08-08T12:47:00.925Z,99765.41
2022-08-08T12:52:28.182Z,99767.63
2022-08-08T12:57:31.277Z,99769.91
2022-08-08T13:02:51.531Z,99766.16
2022-08-08T13:08:03.847Z,99751.44
2022-08-08T13:13:08.505Z,99754.00
2022-08-08T13:18:13.648Z,99750.78
2022-08-08T13:23:30.635Z,99750.72
2022-08-08T13:28:41.401Z,99742.00
2022-08-08T13:33:50.288Z,99757.81
2022-08-08T13:39:00.265Z,99751.38
2022-08-08T13:44:04.812Z,99741.47
2022-08-08T13:50:37.262Z,99754.50
2022-08-08T13:54:49.803Z,99760.25
2022-08-08T14:00:05.178Z,99759.66
2022-08-08T14:05:22.005Z,99748.19
2022-08-08T14:10:33.330Z,99755.97
2022-08-08T14:15:46.369Z,99756.78
2022-08-08T14:21:03.254Z,99756.84
2022-08-08T14:26:11.259Z,99749.81
2022-08-08T14:31:20.345Z,99749.41
2022-08-08T14:36:34.981Z,99747.84
2022-08-08T14:41:53.848Z,99744.94
2022-08-08T14:47:00.368Z,99705.50
2022-08-08T14:52:09.722Z,99747.59
2022-08-08T14:57:16.175Z,99742.72
2022-08-08T15:02:25.566Z,99746.59
2022-08-08T15:07:36.854Z,99741.59
2022-08-08T15:12:45.535Z,99752.19
2022-08-08T15:17:49.984Z,99734.88
2022-08-08T15:22:54.484Z,99743.44
2022-08-08T15:28:32.612Z,99736.56
2022-08-08T15:33:38.584Z,99733.22
2022-08-08T15:38:51.631Z,99733.13
2022-08-08T15:44:01.244Z,99728.78
2022-08-08T15:49:05.656Z,99717.03
2022-08-08T15:54:37.653Z,99713.41
2022-08-08T16:00:18.204Z,99706.06
2022-08-08T16:04:58.826Z,99726.56
2022-08-08T16:13:13.851Z,99730.53
2022-08-08T16:15:27.759Z,99724.88
2022-08-08T16:20:36.497Z,99724.66
2022-08-08T16:25:46.125Z,99721.34
2022-08-08T16:30:59.659Z,99725.59
2022-08-08T16:36:15.765Z,99720.28
2022-08-08T16:41:20.355Z,99716.50
2022-08-08T16:46:37.652Z,99723.69
2022-08-08T16:55:06.469Z,99722.84
2022-08-08T16:58:11.841Z,99739.34
2022-08-08T17:02:39.376Z,99743.47
2022-08-08T17:07:47.989Z,99744.03
2022-08-08T17:12:54.531Z,99752.22
2022-08-08T17:18:03.461Z,99754.19
2022-08-08T17:23:18.042Z,99757.81
2022-08-08T17:28:35.382Z,99768.31
2022-08-08T17:34:52.707Z,99767.69
2022-08-08T17:39:46.056Z,99777.16
2022-08-08T17:44:29.287Z,99775.59
2022-08-08T17:49:42.553Z,99767.50
2022-08-08T17:54:47.156Z,99772.63
2022-08-08T18:00:02.145Z,99765.50
2022-08-08T18:05:08.954Z,99769.44
2022-08-08T18:10:31.367Z,99763.69
2022-08-08T18:15:34.977Z,99764.97
2022-08-08T18:20:54.475Z,99772.28
2022-08-08T18:26:04.823Z,99769.22
2022-08-08T18:31:08.240Z,99772.34
2022-08-08T18:36:22.974Z,99769.00
2022-08-08T18:41:45.542Z,99771.84
2022-08-08T18:46:55.987Z,99773.63
2022-08-08T18:52:02.346Z,99781.69
2022-08-08T18:57:11.132Z,99768.59
2022-08-08T19:02:27.528Z,99766.34
2022-08-08T19:07:37.569Z,99766.44
2022-08-08T19:12:44.723Z,99759.81
2022-08-08T19:18:32.283Z,99767.13
2022-08-08T19:23:21.903Z,99761.56
2022-08-08T19:28:25.428Z,99762.34
2022-08-08T19:33:52.313Z,99758.06
2022-08-08T19:38:53.921Z,99749.44
2022-08-08T19:44:03.894Z,99752.28
2022-08-08T19:49:15.824Z,99741.91
2022-08-08T19:54:20.850Z,99740.91
2022-08-08T19:59:25.449Z,99756.75
2022-08-08T20:04:30.498Z,99745.94
2022-08-08T20:09:45.134Z,99743.09
2022-08-08T20:14:58.883Z,99738.81
2022-08-08T20:20:02.885Z,99731.84
2022-08-08T20:25:09.001Z,99724.84
2022-08-08T20:30:53.554Z,99726.03
2022-08-08T20:35:56.920Z,99735.22
2022-08-08T20:41:19.114Z,99740.75
2022-08-08T20:46:25.418Z,99745.38
2022-08-08T20:51:32.282Z,99753.34
2022-08-08T20:57:04.733Z,99759.63
2022-08-08T21:02:07.772Z,99757.16
2022-08-08T21:07:13.276Z,99758.19
2022-08-08T21:12:32.451Z,99760.97
2022-08-08T21:17:37.764Z,99763.72
2022-08-08T21:22:40.964Z,99753.31
2022-08-08T21:28:09.724Z,99739.53
2022-08-08T21:33:11.723Z,99760.63
2022-08-08T21:38:17.967Z,99773.19
2022-08-08T21:43:23.200Z,99764.56
2022-08-08T21:48:30.398Z,99783.94
2022-08-08T21:54:36.675Z,99786.69
2022-08-08T21:59:10.004Z,99782.88
2022-08-08T22:04:13.484Z,99801.78
2022-08-08T22:09:18.739Z,99824.56
2022-08-08T22:14:26.733Z,99824.13
2022-08-08T22:20:12.127Z,99826.94
2022-08-08T22:24:55.043Z,99810.84
2022-08-08T22:30:03.339Z,99805.16
2022-08-08T22:35:08.641Z,99793.44
2022-08-08T22:40:17.105Z,99786.31
2022-08-08T22:45:22.076Z,99785.19
2022-08-08T22:50:28.383Z,99782.75
2022-08-08T22:55:32.437Z,99771.41
2022-08-08T23:00:59.994Z,99746.72
2022-08-08T23:06:04.289Z,99732.00
2022-08-08T23:11:13.297Z,99715.72
2022-08-08T23:16:41.665Z,99722.16
2022-08-08T23:21:41.381Z,99714.34
2022-08-08T23:26:53.459Z,99714.59
2022-08-08T23:32:01.843Z,99712.81
2022-08-08T23:37:08.441Z,99713.78
2022-08-08T23:42:15.051Z,99713.78
2022-08-08T23:49:04.023Z,99705.78
2022-08-08T23:52:46.248Z,99719.09
2022-08-08T23:57:52.907Z,99723.31
